createdAt,value
2019-03-18T00:00:52.128Z,78.63
2019-03-18T00:03:25.360Z,78.60
2019-03-18T00:05:55.024Z,78.71
2019-03-18T00:08:27.758Z,78.65
2019-03-18T00:10:57.299Z,78.60
2019-03-18T00:13:29.744Z,78.71
2019-03-18T00:18:36.591Z,78.82
2019-03-18T00:21:17.038Z,79.65
2019-03-18T00:23:58.921Z,79.65
2019-03-18T00:26:28.347Z,79.35
2019-03-18T00:29:16.758Z,79.67
2019-03-18T00:34:20.975Z,79.71
2019-03-18T00:36:50.547Z,79.81
2019-03-18T00:39:19.935Z,79.70
2019-03-18T00:44:56.973Z,79.83
2019-03-18T00:47:26.343Z,80.04
2019-03-18T00:49:55.877Z,80.04
2019-03-18T00:52:25.467Z,80.25
2019-03-18T00:55:15.138Z,80.42
2019-03-18T01:00:26.470Z,81.80
2019-03-18T01:02:55.899Z,81.80
2019-03-18T01:05:25.438Z,82.21
2019-03-18T01:07:55.126Z,82.51
2019-03-18T01:10:24.517Z,82.51
2019-03-18T01:12:53.976Z,82.33
2019-03-18T01:15:28.421Z,82.47
2019-03-18T01:17:57.274Z,82.20
2019-03-18T01:20:37.902Z,82.51
2019-03-18T01:23:19.880Z,82.51
2019-03-18T01:25:49.396Z,82.48
2019-03-18T01:28:18.772Z,82.13
2019-03-18T01:30:48.148Z,82.13
2019-03-18T01:33:17.676Z,81.80
2019-03-18T01:35:47.097Z,81.59
2019-03-18T01:38:16.465Z,81.32
2019-03-18T01:40:45.960Z,81.42
2019-03-18T01:43:15.427Z,81.27
2019-03-18T01:45:45.030Z,81.27
2019-03-18T01:48:14.541Z,81.19
2019-03-18T01:50:46.367Z,81.31
2019-03-18T01:53:15.887Z,81.84
2019-03-18T01:56:04.390Z,81.98
2019-03-18T01:58:46.306Z,82.43
2019-03-18T02:03:51.232Z,83.05
2019-03-18T02:06:20.788Z,83.62
2019-03-18T02:08:50.631Z,83.63
2019-03-18T02:11:39.156Z,83.99
2019-03-18T02:16:50.249Z,83.64
2019-03-18T02:19:19.766Z,83.50
2019-03-18T02:21:49.170Z,83.62
2019-03-18T02:24:18.644Z,83.24
2019-03-18T02:26:48.133Z,83.44
2019-03-18T02:29:36.596Z,83.80
2019-03-18T02:32:06.031Z,83.80
2019-03-18T02:34:35.522Z,83.49
2019-03-18T02:37:05.112Z,83.24
2019-03-18T02:39:34.613Z,83.39
2019-03-18T02:42:04.048Z,83.51
2019-03-18T02:44:33.518Z,83.88
2019-03-18T02:47:03.075Z,84.20
2019-03-18T02:49:32.469Z,84.46
2019-03-18T02:52:04.030Z,84.71
2019-03-18T02:54:33.364Z,84.71
2019-03-18T02:57:02.888Z,84.62
2019-03-18T03:02:26.247Z,84.06
2019-03-18T03:04:58.069Z,84.06
2019-03-18T03:07:31.120Z,83.37
2019-03-18T03:10:00.697Z,83.40
2019-03-18T03:12:49.048Z,83.40
2019-03-18T03:15:18.934Z,83.43
2019-03-18T03:18:09.502Z,83.64
2019-03-18T03:20:57.965Z,83.77
2019-03-18T03:23:27.405Z,83.77
2019-03-18T03:25:58.457Z,83.54
2019-03-18T03:28:28.277Z,83.29
2019-03-18T03:31:12.583Z,83.21
2019-03-18T03:33:29.421Z,83.22
2019-03-18T03:36:10.007Z,83.34
2019-03-18T03:38:39.403Z,83.34
2019-03-18T03:41:08.914Z,82.92
2019-03-18T03:43:38.406Z,82.86
2019-03-18T03:46:07.923Z,82.49
2019-03-18T03:48:37.321Z,82.66
2019-03-18T03:53:44.202Z,82.39
2019-03-18T03:56:25.192Z,82.34
2019-03-18T04:01:35.399Z,82.40
2019-03-18T04:04:23.916Z,82.36
2019-03-18T04:06:53.403Z,82.35
2019-03-18T04:09:26.069Z,82.27
2019-03-18T04:12:14.479Z,82.38
2019-03-18T04:14:44.342Z,82.25
2019-03-18T04:17:51.778Z,81.87
2019-03-18T04:20:21.142Z,81.87
2019-03-18T04:22:50.730Z,82.14
2019-03-18T04:25:20.226Z,81.94
2019-03-18T04:27:49.731Z,81.95
2019-03-18T04:30:19.307Z,82.00
2019-03-18T04:35:23.525Z,82.10
2019-03-18T04:40:47.537Z,81.49
2019-03-18T04:43:28.387Z,81.42
2019-03-18T04:46:09.162Z,81.30
2019-03-18T04:48:39.870Z,81.30
2019-03-18T04:51:09.326Z,81.04
2019-03-18T04:53:38.767Z,81.01
2019-03-18T04:56:08.149Z,80.90
2019-03-18T04:58:37.834Z,81.05
2019-03-18T05:01:07.232Z,80.91
2019-03-18T05:03:36.645Z,80.84
2019-03-18T05:06:06.487Z,80.57
2019-03-18T05:08:38.883Z,80.62
2019-03-18T05:11:08.357Z,80.50
2019-03-18T05:13:37.776Z,80.74
2019-03-18T05:16:07.135Z,80.93
2019-03-18T05:18:36.929Z,81.29
2019-03-18T05:21:06.266Z,81.29
2019-03-18T05:23:35.653Z,81.48
2019-03-18T05:26:05.108Z,81.70
2019-03-18T05:28:34.888Z,81.62
2019-03-18T05:31:23.324Z,81.75
2019-03-18T05:36:40.321Z,82.18
2019-03-18T05:39:09.827Z,82.49
2019-03-18T05:41:39.210Z,82.61
2019-03-18T05:44:08.671Z,82.58
2019-03-18T05:46:38.046Z,82.42
2019-03-18T05:49:26.731Z,81.75
2019-03-18T05:52:15.009Z,81.75
2019-03-18T05:57:48.926Z,81.39
2019-03-18T06:00:30.034Z,81.25
2019-03-18T06:03:00.171Z,81.25
2019-03-18T06:05:31.925Z,81.46
2019-03-18T06:08:01.369Z,81.48
2019-03-18T06:10:31.140Z,81.54
2019-03-18T06:13:00.520Z,81.52
2019-03-18T06:15:30.065Z,81.39
2019-03-18T06:18:18.577Z,81.83
2019-03-18T06:21:07.098Z,81.79
2019-03-18T06:23:39.659Z,81.79
2019-03-18T06:26:09.099Z,81.31
2019-03-18T06:28:38.519Z,81.08
2019-03-18T06:31:07.922Z,81.20
2019-03-18T06:33:37.307Z,80.78
2019-03-18T06:36:28.260Z,81.40
2019-03-18T06:39:16.714Z,80.50
2019-03-18T06:41:49.467Z,80.50
2019-03-18T06:44:37.866Z,81.15
2019-03-18T06:47:18.404Z,81.45
2019-03-18T06:49:47.890Z,81.45
2019-03-18T06:52:17.271Z,80.96
2019-03-18T06:54:47.287Z,81.21
2019-03-18T06:57:16.637Z,80.85
2019-03-18T06:59:46.484Z,80.77
2019-03-18T07:02:15.887Z,80.81
2019-03-18T07:04:45.517Z,80.68
2019-03-18T07:07:14.980Z,80.32
2019-03-18T07:09:44.453Z,80.77
2019-03-18T07:12:13.943Z,80.42
2019-03-18T07:14:43.325Z,80.11
2019-03-18T07:17:12.837Z,80.17
2019-03-18T07:19:42.275Z,80.00
2019-03-18T07:22:11.771Z,80.10
2019-03-18T07:25:00.381Z,79.70
2019-03-18T07:30:23.593Z,79.50
2019-03-18T07:33:12.352Z,79.70
2019-03-18T07:35:42.110Z,79.69
2019-03-18T07:38:11.499Z,79.65
2019-03-18T07:40:40.962Z,79.55
2019-03-18T07:45:45.705Z,79.03
2019-03-18T07:48:31.179Z,79.17
2019-03-18T07:56:37.128Z,78.29
2019-03-18T07:59:18.039Z,78.12
2019-03-18T08:01:47.557Z,77.69
2019-03-18T08:04:17.005Z,77.59
2019-03-18T08:06:46.392Z,77.46
2019-03-18T08:09:34.752Z,77.63
2019-03-18T08:15:17.081Z,77.26
2019-03-18T08:17:46.954Z,77.47
2019-03-18T08:20:16.321Z,77.63
2019-03-18T08:22:45.933Z,77.43
2019-03-18T08:25:34.503Z,77.45
2019-03-18T08:28:03.924Z,77.89
2019-03-18T08:30:33.323Z,78.39
2019-03-18T08:33:05.191Z,78.33
2019-03-18T08:35:34.685Z,77.79
2019-03-18T08:38:04.134Z,78.12
2019-03-18T08:40:33.533Z,78.24
2019-03-18T08:43:21.912Z,78.43
2019-03-18T08:45:51.353Z,78.47
2019-03-18T08:48:20.716Z,78.21
2019-03-18T08:50:50.174Z,78.87
2019-03-18T08:53:19.575Z,78.54
2019-03-18T08:55:48.961Z,78.45
2019-03-18T08:58:18.371Z,78.89
2019-03-18T09:00:47.754Z,78.74
2019-03-18T09:03:17.138Z,78.32
2019-03-18T09:05:46.567Z,78.38
2019-03-18T09:08:15.964Z,79.14
2019-03-18T09:10:45.371Z,79.57
2019-03-18T09:15:49.988Z,79.16
2019-03-18T09:18:30.571Z,79.64
2019-03-18T09:21:07.697Z,79.71
2019-03-18T09:23:37.222Z,79.49
2019-03-18T09:26:06.642Z,79.56
2019-03-18T09:28:36.067Z,79.68
2019-03-18T09:31:05.551Z,79.06
2019-03-18T09:33:34.962Z,79.45
2019-03-18T09:36:14.078Z,78.32
2019-03-18T09:38:43.446Z,77.63
2019-03-18T09:41:12.960Z,77.30
2019-03-18T09:43:42.405Z,76.80
2019-03-18T09:46:12.035Z,76.92
2019-03-18T09:48:41.419Z,77.32
2019-03-18T09:53:45.743Z,75.25
2019-03-18T09:56:26.519Z,74.62
2019-03-18T09:58:56.277Z,73.55
2019-03-18T10:01:25.741Z,72.49
2019-03-18T10:04:14.030Z,72.26
2019-03-18T10:06:43.567Z,72.12
2019-03-18T10:09:13.200Z,72.21
2019-03-18T10:11:42.675Z,72.43
2019-03-18T10:14:12.100Z,72.73
2019-03-18T10:16:41.570Z,73.43
2019-03-18T10:19:11.387Z,73.94
2019-03-18T10:21:41.386Z,73.98
2019-03-18T10:24:10.787Z,73.97
2019-03-18T10:26:40.848Z,73.76
2019-03-18T10:29:10.834Z,73.15
2019-03-18T10:31:59.271Z,73.70
2019-03-18T10:34:29.308Z,72.41
2019-03-18T10:36:58.758Z,71.34
2019-03-18T10:39:49.025Z,70.61
2019-03-18T10:42:19.311Z,68.89
2019-03-18T10:44:48.711Z,69.04
2019-03-18T10:47:18.155Z,70.41
2019-03-18T10:55:16.780Z,71.88
2019-03-18T10:57:46.164Z,72.47
2019-03-18T11:00:15.753Z,73.40
2019-03-18T11:02:45.731Z,73.77
2019-03-18T11:05:16.883Z,74.14
2019-03-18T11:07:46.315Z,73.05
2019-03-18T11:10:33.879Z,72.68
2019-03-18T11:13:22.227Z,72.44
2019-03-18T11:18:26.537Z,74.42
2019-03-18T11:20:56.148Z,76.27
2019-03-18T11:23:25.575Z,77.84
2019-03-18T11:26:16.231Z,78.02
2019-03-18T11:28:45.925Z,77.63
2019-03-18T11:31:15.511Z,78.04
2019-03-18T11:33:45.030Z,77.70
2019-03-18T11:36:14.434Z,77.06
2019-03-18T11:38:43.909Z,77.38
2019-03-18T11:41:32.530Z,75.42
2019-03-18T11:46:45.805Z,74.61
2019-03-18T11:49:15.581Z,74.24
2019-03-18T11:51:45.037Z,74.45
2019-03-18T11:54:15.536Z,74.67
2019-03-18T11:56:45.026Z,75.50
2019-03-18T11:59:14.706Z,75.33
2019-03-18T12:01:44.193Z,76.57
2019-03-18T12:04:13.595Z,75.83
2019-03-18T12:06:43.034Z,76.11
2019-03-18T12:09:12.456Z,74.83
2019-03-18T12:11:41.840Z,74.46
2019-03-18T12:14:11.211Z,74.76
2019-03-18T12:16:40.644Z,74.88
2019-03-18T12:19:10.028Z,75.06
2019-03-18T12:21:39.446Z,75.13
2019-03-18T12:24:08.995Z,75.87
2019-03-18T12:26:38.458Z,76.15
2019-03-18T12:29:07.858Z,76.09
2019-03-18T12:31:37.301Z,75.92
2019-03-18T12:34:06.670Z,76.23
2019-03-18T12:36:36.092Z,76.13
2019-03-18T12:39:44.969Z,75.84
2019-03-18T12:44:58.097Z,76.77
2019-03-18T12:50:38.563Z,76.56
2019-03-18T12:52:52.622Z,75.85
2019-03-18T12:55:22.165Z,76.86
2019-03-18T12:57:51.556Z,77.73
2019-03-18T13:00:22.278Z,76.97
2019-03-18T13:02:51.765Z,76.93
2019-03-18T13:07:56.773Z,74.76
2019-03-18T13:10:26.318Z,74.40
2019-03-18T13:12:57.798Z,75.15
2019-03-18T13:18:55.116Z,75.84
2019-03-18T13:24:17.887Z,77.86
2019-03-18T13:26:47.308Z,78.55
2019-03-18T13:29:16.685Z,78.94
2019-03-18T13:37:00.714Z,79.99
2019-03-18T13:45:01.917Z,80.48
2019-03-18T13:47:31.414Z,81.89
2019-03-18T13:50:19.800Z,81.99
2019-03-18T13:53:01.265Z,82.48
2019-03-18T13:55:31.627Z,82.26
2019-03-18T13:58:01.098Z,82.37
2019-03-18T14:00:49.516Z,82.90
2019-03-18T14:03:19.800Z,83.49
2019-03-18T14:05:49.170Z,82.07
2019-03-18T14:08:18.606Z,81.89
2019-03-18T14:10:48.058Z,81.08
2019-03-18T14:13:17.466Z,80.38
2019-03-18T14:15:46.933Z,81.02
2019-03-18T14:18:16.311Z,81.10
2019-03-18T14:26:11.902Z,81.49
2019-03-18T14:34:08.633Z,83.00
2019-03-18T14:36:49.793Z,82.91
2019-03-18T14:39:20.123Z,82.44
2019-03-18T14:41:49.500Z,82.44
2019-03-18T14:44:18.981Z,82.19
2019-03-18T14:46:48.384Z,81.84
2019-03-18T14:49:18.137Z,80.17
2019-03-18T14:57:10.514Z,80.40
2019-03-18T15:02:20.891Z,79.89
2019-03-18T15:05:01.706Z,80.86
2019-03-18T15:07:42.429Z,80.86
2019-03-18T15:10:12.205Z,81.04
2019-03-18T15:13:00.618Z,81.02
2019-03-18T15:15:29.980Z,81.02
2019-03-18T15:17:59.395Z,81.02
2019-03-18T15:20:28.810Z,79.33
2019-03-18T15:23:17.307Z,79.33
2019-03-18T15:25:46.736Z,79.41
2019-03-18T15:31:12.738Z,78.01
2019-03-18T15:36:30.569Z,78.10
2019-03-18T15:39:05.624Z,77.69
2019-03-18T15:41:53.605Z,77.78
2019-03-18T15:44:23.207Z,77.80
2019-03-18T15:47:14.460Z,77.80
2019-03-18T15:49:43.935Z,76.09
2019-03-18T15:55:03.729Z,75.01
2019-03-18T15:57:33.334Z,76.01
2019-03-18T16:00:02.974Z,76.44
2019-03-18T16:02:32.502Z,74.46
2019-03-18T16:05:04.406Z,75.22
2019-03-18T16:07:33.843Z,75.14
2019-03-18T16:10:15.337Z,75.06
2019-03-18T16:12:47.451Z,75.61
2019-03-18T16:15:16.937Z,75.73
2019-03-18T16:17:46.360Z,75.21
2019-03-18T16:20:18.279Z,75.32
2019-03-18T16:23:06.887Z,77.97
2019-03-18T16:25:48.271Z,77.97
2019-03-18T16:28:17.654Z,79.04
2019-03-18T16:30:47.027Z,79.04
2019-03-18T16:33:16.463Z,79.28
2019-03-18T16:36:04.882Z,80.72
2019-03-18T16:38:34.348Z,80.72
2019-03-18T16:41:22.724Z,80.66
2019-03-18T16:43:52.108Z,80.39
2019-03-18T16:46:23.763Z,80.98
2019-03-18T16:48:53.166Z,80.39
2019-03-18T16:51:26.676Z,80.53
2019-03-18T16:54:15.113Z,79.65
2019-03-18T16:56:44.571Z,80.18
2019-03-18T16:59:22.914Z,79.95
2019-03-18T17:01:52.326Z,80.07
2019-03-18T17:04:21.742Z,80.88
2019-03-18T17:06:51.263Z,81.47
2019-03-18T17:09:20.654Z,81.41
2019-03-18T17:11:50.050Z,81.81
2019-03-18T17:14:19.695Z,81.94
2019-03-18T17:16:49.117Z,81.91
2019-03-18T17:19:19.955Z,81.69
2019-03-18T17:21:49.356Z,81.53
2019-03-18T17:24:18.813Z,81.40
2019-03-18T17:26:59.717Z,81.31
2019-03-18T17:29:48.069Z,81.50
2019-03-18T17:32:17.747Z,81.33
2019-03-18T17:34:47.137Z,81.40
2019-03-18T17:37:19.610Z,81.45
2019-03-18T17:39:49.159Z,81.36
2019-03-18T17:42:18.595Z,81.25
2019-03-18T17:44:47.986Z,80.85
2019-03-18T17:47:20.044Z,81.03
2019-03-18T17:49:49.498Z,80.31
2019-03-18T17:52:19.604Z,80.45
2019-03-18T17:54:49.108Z,80.59
2019-03-18T17:57:18.511Z,80.63
2019-03-18T17:59:47.912Z,80.52
2019-03-18T18:02:17.348Z,80.42
2019-03-18T18:04:46.714Z,80.05
2019-03-18T18:07:16.105Z,80.29
2019-03-18T18:09:45.507Z,79.81
2019-03-18T18:12:14.998Z,79.81
2019-03-18T18:14:44.383Z,79.73
2019-03-18T18:17:13.971Z,78.70
2019-03-18T18:22:46.146Z,78.47
2019-03-18T18:25:27.440Z,78.16
2019-03-18T18:27:56.998Z,77.50
2019-03-18T18:30:26.470Z,76.35
2019-03-18T18:32:55.911Z,76.33
2019-03-18T18:35:25.431Z,77.14
2019-03-18T18:37:55.019Z,76.80
2019-03-18T18:41:08.045Z,76.48
2019-03-18T18:43:37.741Z,76.44
2019-03-18T18:46:07.276Z,76.43
2019-03-18T18:48:36.805Z,76.71
2019-03-18T18:51:25.188Z,76.44
2019-03-18T18:56:48.585Z,76.34
2019-03-18T18:59:18.173Z,76.15
2019-03-18T19:01:47.775Z,76.33
2019-03-18T19:04:17.593Z,76.39
2019-03-18T19:06:47.069Z,76.47
2019-03-18T19:09:16.625Z,76.69
2019-03-18T19:11:46.023Z,75.24
2019-03-18T19:14:17.893Z,74.41
2019-03-18T19:16:47.398Z,74.20
2019-03-18T19:19:17.334Z,73.17
2019-03-18T19:22:05.983Z,72.92
2019-03-18T19:24:47.647Z,72.47
2019-03-18T19:27:26.357Z,72.21
2019-03-18T19:29:56.065Z,72.39
2019-03-18T19:37:54.015Z,72.46
2019-03-18T19:40:24.336Z,72.46
2019-03-18T19:42:53.872Z,72.78
2019-03-18T19:45:23.341Z,73.10
2019-03-18T19:47:53.456Z,73.76
2019-03-18T19:53:19.128Z,73.82
2019-03-18T19:55:48.498Z,73.91
2019-03-18T19:58:17.902Z,73.73
2019-03-18T20:03:21.953Z,74.39
2019-03-18T20:06:03.248Z,74.48
2019-03-18T20:08:44.365Z,74.76
2019-03-18T20:14:08.216Z,74.85
2019-03-18T20:16:56.494Z,74.98
2019-03-18T20:19:26.093Z,74.69
2019-03-18T20:21:55.546Z,74.79
2019-03-18T20:27:15.501Z,75.00
2019-03-18T20:29:44.928Z,74.65
2019-03-18T20:32:14.409Z,74.12
2019-03-18T20:34:43.920Z,73.98
2019-03-18T20:37:13.405Z,73.87
2019-03-18T20:39:42.798Z,73.95
2019-03-18T20:42:12.810Z,73.31
2019-03-18T20:44:42.241Z,73.38
2019-03-18T20:47:11.718Z,73.69
2019-03-18T20:49:41.305Z,73.22
2019-03-18T20:52:16.787Z,73.13
2019-03-18T20:54:42.068Z,73.34
2019-03-18T20:57:23.454Z,73.55
2019-03-18T20:59:52.942Z,73.27
2019-03-18T21:02:23.460Z,73.45
2019-03-18T21:05:12.026Z,73.55
2019-03-18T21:07:41.613Z,73.35
2019-03-18T21:10:11.919Z,73.17
2019-03-18T21:15:17.603Z,73.27
2019-03-18T21:20:28.338Z,73.39
2019-03-18T21:22:57.826Z,73.61
2019-03-18T21:25:27.296Z,73.77
2019-03-18T21:30:32.247Z,74.07
2019-03-18T21:33:01.974Z,74.12
2019-03-18T21:35:31.874Z,74.36
2019-03-18T21:38:01.435Z,74.78
2019-03-18T21:40:31.120Z,74.64
2019-03-18T21:43:00.487Z,74.59
2019-03-18T21:45:31.436Z,74.50
2019-03-18T21:48:03.860Z,74.86
2019-03-18T21:50:33.545Z,74.72
2019-03-18T21:53:22.145Z,74.43
2019-03-18T21:56:03.220Z,74.82
2019-03-18T21:58:33.175Z,74.99
2019-03-18T22:01:06.767Z,75.30
2019-03-18T22:03:47.109Z,75.99
2019-03-18T22:06:16.507Z,76.71
2019-03-18T22:08:45.933Z,76.99
2019-03-18T22:11:15.362Z,77.17
2019-03-18T22:14:05.167Z,77.36
2019-03-18T22:16:34.641Z,77.39
2019-03-18T22:19:04.300Z,77.65
2019-03-18T22:21:54.147Z,78.17
2019-03-18T22:24:23.607Z,78.72
2019-03-18T22:26:52.992Z,79.16
2019-03-18T22:29:22.438Z,79.92
2019-03-18T22:31:51.960Z,80.21
2019-03-18T22:34:21.329Z,80.56
2019-03-18T22:36:50.965Z,80.68
2019-03-18T22:39:20.354Z,80.72
2019-03-18T22:41:49.810Z,80.96
2019-03-18T22:44:19.221Z,81.21
2019-03-18T22:46:48.604Z,81.35
2019-03-18T22:49:18.022Z,81.57
2019-03-18T22:51:47.427Z,81.46
2019-03-18T22:54:16.813Z,81.76
2019-03-18T22:59:34.671Z,82.39
2019-03-18T23:02:06.847Z,82.49
2019-03-18T23:04:47.323Z,82.80
2019-03-18T23:07:16.797Z,82.70
2019-03-18T23:09:46.159Z,82.73
2019-03-18T23:14:50.161Z,82.42
2019-03-18T23:17:19.570Z,82.42
2019-03-18T23:20:02.498Z,82.61
2019-03-18T23:22:31.665Z,82.54
2019-03-18T23:25:06.982Z,82.40
2019-03-18T23:27:32.234Z,82.41
2019-03-18T23:30:01.966Z,82.12
2019-03-18T23:32:31.437Z,82.09
2019-03-18T23:35:01.020Z,81.73
2019-03-18T23:40:05.448Z,81.72
2019-03-18T23:42:35.027Z,81.69
2019-03-18T23:45:04.767Z,81.78
2019-03-18T23:47:34.332Z,81.34
2019-03-18T23:50:04.055Z,81.40
2019-03-18T23:52:33.656Z,81.26
2019-03-18T23:55:06.170Z,81.17
2019-03-18T23:57:35.617Z,81.42
